sensor_id;sensor_type;location;lat;lon;timestamp;pressure;altitude;pressure_sealevel;temperature;humidity
45285;BME280;31026;43.780;25.948;2023-05-09T00:01:45;101520.56;;;19.27;68.79
45285;BME280;31026;43.780;25.948;2023-05-09T00:04:13;101513.25;;;19.29;68.76
45285;BME280;31026;43.780;25.948;2023-05-09T00:06:42;101526.28;;;19.34;68.39
45285;BME280;31026;43.780;25.948;2023-05-09T00:09:10;101525.28;;;19.23;68.92
45285;BME280;31026;43.780;25.948;2023-05-09T00:11:42;101526.28;;;19.22;69.09
45285;BME280;31026;43.780;25.948;2023-05-09T00:14:10;101520.44;;;19.28;68.59
45285;BME280;31026;43.780;25.948;2023-05-09T00:16:39;101523.97;;;19.29;68.65
45285;BME280;31026;43.780;25.948;2023-05-09T00:19:08;101520.06;;;19.22;68.92
45285;BME280;31026;43.780;25.948;2023-05-09T00:21:37;101518.13;;;19.24;68.89
45285;BME280;31026;43.780;25.948;2023-05-09T00:24:05;101514.97;;;19.30;68.61
45285;BME280;31026;43.780;25.948;2023-05-09T00:26:34;101523.97;;;19.29;68.58
45285;BME280;31026;43.780;25.948;2023-05-09T00:29:05;101513.75;;;19.34;68.39
45285;BME280;31026;43.780;25.948;2023-05-09T00:31:33;101518.97;;;19.36;68.32
45285;BME280;31026;43.780;25.948;2023-05-09T00:34:01;101519.44;;;19.30;68.48
45285;BME280;31026;43.780;25.948;2023-05-09T00:36:29;101517.97;;;19.25;68.79
45285;BME280;31026;43.780;25.948;2023-05-09T00:38:58;101514.72;;;19.33;68.65
45285;BME280;31026;43.780;25.948;2023-05-09T00:41:26;101527.50;;;19.30;68.38
45285;BME280;31026;43.780;25.948;2023-05-09T00:43:54;101529.34;;;19.29;68.56
45285;BME280;31026;43.780;25.948;2023-05-09T00:46:25;101529.69;;;19.36;68.24
45285;BME280;31026;43.780;25.948;2023-05-09T00:48:54;101534.09;;;19.37;68.54
45285;BME280;31026;43.780;25.948;2023-05-09T00:51:23;101525.06;;;19.26;68.63
45285;BME280;31026;43.780;25.948;2023-05-09T00:53:52;101537.75;;;19.24;68.71
45285;BME280;31026;43.780;25.948;2023-05-09T00:56:21;101527.88;;;19.25;68.54
45285;BME280;31026;43.780;25.948;2023-05-09T00:58:49;101543.47;;;19.31;68.46
45285;BME280;31026;43.780;25.948;2023-05-09T01:01:17;101540.56;;;19.34;68.20
45285;BME280;31026;43.780;25.948;2023-05-09T01:03:49;101533.75;;;19.30;68.35
45285;BME280;31026;43.780;25.948;2023-05-09T01:06:21;101550.06;;;19.27;68.47
45285;BME280;31026;43.780;25.948;2023-05-09T01:08:54;101529.81;;;19.23;68.46
45285;BME280;31026;43.780;25.948;2023-05-09T01:11:28;101530.03;;;19.20;68.71
45285;BME280;31026;43.780;25.948;2023-05-09T01:14:00;101535.66;;;19.17;68.81
45285;BME280;31026;43.780;25.948;2023-05-09T01:16:34;101530.03;;;19.08;69.15
45285;BME280;31026;43.780;25.948;2023-05-09T01:19:19;101529.66;;;19.13;69.01
45285;BME280;31026;43.780;25.948;2023-05-09T01:21:54;101534.28;;;19.11;68.86
45285;BME280;31026;43.780;25.948;2023-05-09T01:24:35;101545.13;;;19.10;68.95
45285;BME280;31026;43.780;25.948;2023-05-09T01:27:17;101538.31;;;19.17;68.69
45285;BME280;31026;43.780;25.948;2023-05-09T01:29:51;101533.91;;;19.16;68.67
45285;BME280;31026;43.780;25.948;2023-05-09T01:32:24;101531.53;;;19.24;68.44
45285;BME280;31026;43.780;25.948;2023-05-09T01:34:54;101549.09;;;19.28;68.41
45285;BME280;31026;43.780;25.948;2023-05-09T01:37:27;101535.41;;;19.20;68.27
45285;BME280;31026;43.780;25.948;2023-05-09T01:39:57;101548.06;;;19.18;68.55
45285;BME280;31026;43.780;25.948;2023-05-09T01:42:31;101539.53;;;19.13;68.89
45285;BME280;31026;43.780;25.948;2023-05-09T01:45:03;101541.78;;;19.30;69.02
45285;BME280;31026;43.780;25.948;2023-05-09T01:47:32;101534.00;;;20.29;65.96
45285;BME280;31026;43.780;25.948;2023-05-09T01:50:00;101554.69;;;20.49;65.53
45285;BME280;31026;43.780;25.948;2023-05-09T01:52:29;101553.16;;;20.79;64.65
45285;BME280;31026;43.780;25.948;2023-05-09T01:54:58;101545.06;;;20.69;65.33
45285;BME280;31026;43.780;25.948;2023-05-09T01:57:28;101542.22;;;20.71;65.46
45285;BME280;31026;43.780;25.948;2023-05-09T01:59:57;101538.75;;;20.80;65.09
45285;BME280;31026;43.780;25.948;2023-05-09T02:02:29;101544.34;;;20.88;64.91
45285;BME280;31026;43.780;25.948;2023-05-09T02:04:57;101523.84;;;20.87;64.99
45285;BME280;31026;43.780;25.948;2023-05-09T02:07:26;101531.44;;;20.82;65.12
45285;BME280;31026;43.780;25.948;2023-05-09T02:09:56;101539.50;;;20.82;65.19
45285;BME280;31026;43.780;25.948;2023-05-09T02:12:25;101545.78;;;20.92;64.82
45285;BME280;31026;43.780;25.948;2023-05-09T02:14:53;101543.09;;;20.92;64.96
45285;BME280;31026;43.780;25.948;2023-05-09T02:17:22;101528.50;;;20.85;64.96
45285;BME280;31026;43.780;25.948;2023-05-09T02:19:53;101542.97;;;20.94;65.17
45285;BME280;31026;43.780;25.948;2023-05-09T02:22:21;101538.66;;;21.02;64.63
45285;BME280;31026;43.780;25.948;2023-05-09T02:24:49;101551.31;;;21.12;64.55
45285;BME280;31026;43.780;25.948;2023-05-09T02:27:18;101533.75;;;21.08;64.66
45285;BME280;31026;43.780;25.948;2023-05-09T02:29:47;101538.81;;;21.01;64.80
45285;BME280;31026;43.780;25.948;2023-05-09T02:32:18;101542.34;;;21.01;64.83
45285;BME280;31026;43.780;25.948;2023-05-09T02:34:47;101547.34;;;20.95;65.05
45285;BME280;31026;43.780;25.948;2023-05-09T02:37:19;101529.13;;;20.98;65.06
45285;BME280;31026;43.780;25.948;2023-05-09T02:39:48;101539.78;;;21.00;64.97
45285;BME280;31026;43.780;25.948;2023-05-09T02:42:18;101552.09;;;21.02;65.09
45285;BME280;31026;43.780;25.948;2023-05-09T02:44:49;101546.34;;;21.07;64.73
45285;BME280;31026;43.780;25.948;2023-05-09T02:47:17;101506.50;;;20.80;64.92
45285;BME280;31026;43.780;25.948;2023-05-09T02:49:46;101547.59;;;21.03;65.05
45285;BME280;31026;43.780;25.948;2023-05-09T02:52:14;101547.19;;;21.08;64.94
45285;BME280;31026;43.780;25.948;2023-05-09T02:54:45;101545.75;;;21.03;64.87
45285;BME280;31026;43.780;25.948;2023-05-09T02:57:14;101563.94;;;21.11;64.75
45285;BME280;31026;43.780;25.948;2023-05-09T02:59:42;101554.25;;;21.09;64.80
45285;BME280;31026;43.780;25.948;2023-05-09T03:02:10;101559.63;;;21.09;65.01
45285;BME280;31026;43.780;25.948;2023-05-09T03:04:39;101560.63;;;21.08;65.09
45285;BME280;31026;43.780;25.948;2023-05-09T03:07:07;101559.53;;;21.10;64.96
45285;BME280;31026;43.780;25.948;2023-05-09T03:09:35;101560.63;;;21.08;64.98
45285;BME280;31026;43.780;25.948;2023-05-09T03:12:06;101573.09;;;21.09;65.11
45285;BME280;31026;43.780;25.948;2023-05-09T03:14:35;101564.19;;;21.08;65.02
45285;BME280;31026;43.780;25.948;2023-05-09T03:17:03;101567.59;;;21.10;64.87
45285;BME280;31026;43.780;25.948;2023-05-09T03:19:31;101580.59;;;21.05;65.40
45285;BME280;31026;43.780;25.948;2023-05-09T03:22:00;101568.75;;;20.96;65.63
45285;BME280;31026;43.780;25.948;2023-05-09T03:24:28;101600.16;;;20.96;65.96
45285;BME280;31026;43.780;25.948;2023-05-09T03:26:57;101604.09;;;20.92;65.98
45285;BME280;31026;43.780;25.948;2023-05-09T03:29:28;101601.13;;;20.95;65.81
45285;BME280;31026;43.780;25.948;2023-05-09T03:31:57;101599.47;;;21.15;65.30
45285;BME280;31026;43.780;25.948;2023-05-09T03:34:25;101617.63;;;21.01;65.51
45285;BME280;31026;43.780;25.948;2023-05-09T03:36:54;101604.50;;;20.87;66.08
45285;BME280;31026;43.780;25.948;2023-05-09T03:39:22;101616.91;;;20.99;65.69
45285;BME280;31026;43.780;25.948;2023-05-09T03:41:50;101608.84;;;21.20;65.26
45285;BME280;31026;43.780;25.948;2023-05-09T03:44:19;101616.22;;;21.39;64.64
45285;BME280;31026;43.780;25.948;2023-05-09T03:46:49;101615.75;;;21.45;64.58
45285;BME280;31026;43.780;25.948;2023-05-09T03:49:18;101624.19;;;21.41;64.48
45285;BME280;31026;43.780;25.948;2023-05-09T03:51:46;101631.53;;;21.39;64.75
45285;BME280;31026;43.780;25.948;2023-05-09T03:54:14;101618.44;;;21.34;64.80
45285;BME280;31026;43.780;25.948;2023-05-09T03:56:43;101636.03;;;21.38;64.67
45285;BME280;31026;43.780;25.948;2023-05-09T03:59:11;101639.00;;;21.35;64.72
45285;BME280;31026;43.780;25.948;2023-05-09T04:01:39;101642.28;;;21.06;65.32
45285;BME280;31026;43.780;25.948;2023-05-09T04:04:12;101649.94;;;20.90;65.89
45285;BME280;31026;43.780;25.948;2023-05-09T04:06:40;101656.53;;;20.86;66.13
45285;BME280;31026;43.780;25.948;2023-05-09T04:09:08;101655.47;;;20.77;66.32
45285;BME280;31026;43.780;25.948;2023-05-09T04:11:37;101667.81;;;20.57;66.77
45285;BME280;31026;43.780;25.948;2023-05-09T04:14:05;101646.06;;;20.49;66.88
45285;BME280;31026;43.780;25.948;2023-05-09T04:16:33;101647.78;;;20.39;67.13
45285;BME280;31026;43.780;25.948;2023-05-09T04:19:01;101656.44;;;20.31;67.35
45285;BME280;31026;43.780;25.948;2023-05-09T04:21:34;101662.91;;;20.29;67.19
45285;BME280;31026;43.780;25.948;2023-05-09T04:24:02;101661.59;;;20.34;66.74
45285;BME280;31026;43.780;25.948;2023-05-09T04:26:30;101654.63;;;20.20;67.31
45285;BME280;31026;43.780;25.948;2023-05-09T04:29:02;101660.72;;;20.00;68.00
45285;BME280;31026;43.780;25.948;2023-05-09T04:31:31;101658.63;;;19.92;68.27
45285;BME280;31026;43.780;25.948;2023-05-09T04:33:59;101668.97;;;19.85;68.36
45285;BME280;31026;43.780;25.948;2023-05-09T04:36:27;101670.94;;;19.83;68.61
45285;BME280;31026;43.780;25.948;2023-05-09T04:38:58;101667.97;;;19.75;68.59
45285;BME280;31026;43.780;25.948;2023-05-09T04:41:26;101659.72;;;19.78;68.51
45285;BME280;31026;43.780;25.948;2023-05-09T04:43:55;101675.75;;;19.67;68.82
45285;BME280;31026;43.780;25.948;2023-05-09T04:46:23;101668.69;;;19.66;69.06
45285;BME280;31026;43.780;25.948;2023-05-09T04:48:52;101674.03;;;19.66;68.62
45285;BME280;31026;43.780;25.948;2023-05-09T04:51:20;101678.19;;;19.70;68.88
45285;BME280;31026;43.780;25.948;2023-05-09T04:53:48;101643.53;;;19.56;68.84
45285;BME280;31026;43.780;25.948;2023-05-09T04:56:19;101674.63;;;19.58;69.02
45285;BME280;31026;43.780;25.948;2023-05-09T04:58:47;101670.84;;;19.61;68.87
45285;BME280;31026;43.780;25.948;2023-05-09T05:01:17;101665.97;;;19.55;68.79
45285;BME280;31026;43.780;25.948;2023-05-09T05:03:45;101661.69;;;19.52;68.93
45285;BME280;31026;43.780;25.948;2023-05-09T05:06:13;101671.53;;;19.52;69.05
45285;BME280;31026;43.780;25.948;2023-05-09T05:08:42;101659.13;;;19.51;69.01
45285;BME280;31026;43.780;25.948;2023-05-09T05:11:10;101668.63;;;19.55;68.69
45285;BME280;31026;43.780;25.948;2023-05-09T05:13:41;101662.16;;;19.57;68.82
45285;BME280;31026;43.780;25.948;2023-05-09T05:16:09;101661.66;;;19.76;68.08
45285;BME280;31026;43.780;25.948;2023-05-09T05:18:38;101663.13;;;19.80;67.92
45285;BME280;31026;43.780;25.948;2023-05-09T05:21:06;101669.59;;;19.78;68.09
45285;BME280;31026;43.780;25.948;2023-05-09T05:23:34;101675.44;;;19.72;68.15
45285;BME280;31026;43.780;25.948;2023-05-09T05:26:02;101675.81;;;19.78;68.04
45285;BME280;31026;43.780;25.948;2023-05-09T05:28:31;101672.75;;;19.72;68.15
45285;BME280;31026;43.780;25.948;2023-05-09T05:31:02;101676.47;;;19.69;68.18
45285;BME280;31026;43.780;25.948;2023-05-09T05:33:30;101672.63;;;19.73;68.03
45285;BME280;31026;43.780;25.948;2023-05-09T05:35:59;101677.56;;;19.66;68.41
45285;BME280;31026;43.780;25.948;2023-05-09T05:38:27;101673.31;;;19.64;68.35
45285;BME280;31026;43.780;25.948;2023-05-09T05:40:55;101666.34;;;19.61;68.43
45285;BME280;31026;43.780;25.948;2023-05-09T05:43:24;101673.78;;;19.58;68.45
45285;BME280;31026;43.780;25.948;2023-05-09T05:45:52;101671.44;;;19.53;68.58
45285;BME280;31026;43.780;25.948;2023-05-09T05:48:23;101679.47;;;19.53;68.53
45285;BME280;31026;43.780;25.948;2023-05-09T05:50:52;101683.03;;;19.54;68.42
45285;BME280;31026;43.780;25.948;2023-05-09T05:53:20;101688.16;;;19.57;68.46
45285;BME280;31026;43.780;25.948;2023-05-09T05:55:48;101689.63;;;19.61;68.40
45285;BME280;31026;43.780;25.948;2023-05-09T05:58:17;101688.84;;;19.72;68.30
45285;BME280;31026;43.780;25.948;2023-05-09T06:00:45;101691.28;;;19.75;68.15
45285;BME280;31026;43.780;25.948;2023-05-09T06:03:13;101690.00;;;19.67;68.81
45285;BME280;31026;43.780;25.948;2023-05-09T06:05:44;101689.00;;;19.57;69.01
45285;BME280;31026;43.780;25.948;2023-05-09T06:08:13;101681.09;;;19.56;69.32
45285;BME280;31026;43.780;25.948;2023-05-09T06:10:41;101689.09;;;19.44;69.00
45285;BME280;31026;43.780;25.948;2023-05-09T06:13:10;101697.06;;;19.33;69.83
45285;BME280;31026;43.780;25.948;2023-05-09T06:15:38;101681.69;;;19.59;68.92
45285;BME280;31026;43.780;25.948;2023-05-09T06:18:07;101691.63;;;19.70;67.73
45285;BME280;31026;43.780;25.948;2023-05-09T06:20:35;101680.09;;;19.57;67.93
45285;BME280;31026;43.780;25.948;2023-05-09T06:23:06;101679.38;;;19.55;68.42
45285;BME280;31026;43.780;25.948;2023-05-09T06:25:35;101690.00;;;19.67;67.85
45285;BME280;31026;43.780;25.948;2023-05-09T06:28:03;101689.53;;;20.20;66.75
45285;BME280;31026;43.780;25.948;2023-05-09T06:30:31;101690.03;;;20.25;66.62
45285;BME280;31026;43.780;25.948;2023-05-09T06:33:00;101688.91;;;20.17;66.85
45285;BME280;31026;43.780;25.948;2023-05-09T06:35:28;101689.44;;;20.22;66.45
45285;BME280;31026;43.780;25.948;2023-05-09T06:37:56;101696.13;;;20.16;67.27
45285;BME280;31026;43.780;25.948;2023-05-09T06:40:27;101693.59;;;20.37;66.70
45285;BME280;31026;43.780;25.948;2023-05-09T06:42:55;101695.91;;;20.42;65.74
45285;BME280;31026;43.780;25.948;2023-05-09T06:45:23;101699.69;;;20.39;65.71
45285;BME280;31026;43.780;25.948;2023-05-09T06:47:52;101686.00;;;20.20;66.39
45285;BME280;31026;43.780;25.948;2023-05-09T06:50:20;101692.56;;;20.04;67.43
45285;BME280;31026;43.780;25.948;2023-05-09T06:52:48;101685.53;;;20.26;66.56
45285;BME280;31026;43.780;25.948;2023-05-09T06:55:16;101699.31;;;20.44;66.27
45285;BME280;31026;43.780;25.948;2023-05-09T06:57:47;101688.69;;;20.31;66.45
45285;BME280;31026;43.780;25.948;2023-05-09T07:00:16;101693.44;;;20.39;66.41
45285;BME280;31026;43.780;25.948;2023-05-09T07:02:44;101685.03;;;20.10;66.88
45285;BME280;31026;43.780;25.948;2023-05-09T07:05:12;101683.56;;;20.05;67.08
45285;BME280;31026;43.780;25.948;2023-05-09T07:07:41;101693.69;;;20.24;66.83
45285;BME280;31026;43.780;25.948;2023-05-09T07:10:10;101693.94;;;20.44;66.30
45285;BME280;31026;43.780;25.948;2023-05-09T07:12:38;101686.47;;;20.25;67.04
45285;BME280;31026;43.780;25.948;2023-05-09T07:15:09;101688.31;;;20.02;67.41
45285;BME280;31026;43.780;25.948;2023-05-09T07:17:38;101685.84;;;19.88;68.14
45285;BME280;31026;43.780;25.948;2023-05-09T07:20:06;101692.06;;;19.99;67.80
45285;BME280;31026;43.780;25.948;2023-05-09T07:22:35;101678.81;;;20.32;66.82
45285;BME280;31026;43.780;25.948;2023-05-09T07:25:05;101683.69;;;20.38;66.50
45285;BME280;31026;43.780;25.948;2023-05-09T07:27:33;101680.28;;;20.36;66.69
45285;BME280;31026;43.780;25.948;2023-05-09T07:30:02;101687.59;;;20.34;66.62
45285;BME280;31026;43.780;25.948;2023-05-09T07:32:33;101687.56;;;20.11;67.15
45285;BME280;31026;43.780;25.948;2023-05-09T07:35:01;101688.31;;;20.24;66.88
45285;BME280;31026;43.780;25.948;2023-05-09T07:37:30;101691.72;;;20.49;66.36
45285;BME280;31026;43.780;25.948;2023-05-09T07:39:59;101692.09;;;20.44;66.45
45285;BME280;31026;43.780;25.948;2023-05-09T07:42:27;101694.44;;;20.38;66.73
45285;BME280;31026;43.780;25.948;2023-05-09T07:44:56;101693.59;;;20.37;66.70
45285;BME280;31026;43.780;25.948;2023-05-09T07:47:25;101698.81;;;20.16;67.11
45285;BME280;31026;43.780;25.948;2023-05-09T07:49:56;101686.97;;;20.30;66.74
45285;BME280;31026;43.780;25.948;2023-05-09T07:52:24;101691.63;;;20.51;66.31
45285;BME280;31026;43.780;25.948;2023-05-09T07:54:53;101677.22;;;20.40;66.68
45285;BME280;31026;43.780;25.948;2023-05-09T07:57:21;101680.50;;;20.33;66.95
45285;BME280;31026;43.780;25.948;2023-05-09T07:59:49;101683.91;;;20.01;67.80
45285;BME280;31026;43.780;25.948;2023-05-09T08:02:18;101678.78;;;20.20;67.28
45285;BME280;31026;43.780;25.948;2023-05-09T08:04:46;101674.28;;;20.32;66.50
45285;BME280;31026;43.780;25.948;2023-05-09T08:07:17;101683.66;;;20.49;66.26
45285;BME280;31026;43.780;25.948;2023-05-09T08:09:45;101681.00;;;20.38;66.23
45285;BME280;31026;43.780;25.948;2023-05-09T08:12:14;101683.69;;;20.38;66.35
45285;BME280;31026;43.780;25.948;2023-05-09T08:14:42;101691.03;;;20.36;66.34
45285;BME280;31026;43.780;25.948;2023-05-09T08:17:11;101680.72;;;19.96;67.89
45285;BME280;31026;43.780;25.948;2023-05-09T08:19:39;101678.06;;;19.96;67.93
45285;BME280;31026;43.780;25.948;2023-05-09T08:22:07;101680.47;;;19.99;68.07
45285;BME280;31026;43.780;25.948;2023-05-09T08:24:38;101697.59;;;20.20;67.42
45285;BME280;31026;43.780;25.948;2023-05-09T08:27:06;101680.28;;;20.36;66.83
45285;BME280;31026;43.780;25.948;2023-05-09T08:29:35;101676.09;;;20.43;66.41
45285;BME280;31026;43.780;25.948;2023-05-09T08:32:03;101686.13;;;20.41;66.58
45285;BME280;31026;43.780;25.948;2023-05-09T08:34:31;101680.28;;;20.36;66.53
45285;BME280;31026;43.780;25.948;2023-05-09T08:37:00;101670.88;;;20.30;66.66
45285;BME280;31026;43.780;25.948;2023-05-09T08:39:29;101683.16;;;19.99;68.04
45285;BME280;31026;43.780;25.948;2023-05-09T08:42:01;101674.66;;;20.16;67.63
45285;BME280;31026;43.780;25.948;2023-05-09T08:44:29;101674.13;;;20.11;67.97
45285;BME280;31026;43.780;25.948;2023-05-09T08:46:58;101679.28;;;20.14;67.66
45285;BME280;31026;43.780;25.948;2023-05-09T08:49:27;101683.22;;;20.21;67.57
45285;BME280;31026;43.780;25.948;2023-05-09T08:51:56;101681.84;;;20.27;67.27
45285;BME280;31026;43.780;25.948;2023-05-09T08:54:24;101662.53;;;20.33;66.93
45285;BME280;31026;43.780;25.948;2023-05-09T08:56:53;101672.19;;;20.24;67.18
45285;BME280;31026;43.780;25.948;2023-05-09T08:59:24;101675.75;;;20.14;67.24
45285;BME280;31026;43.780;25.948;2023-05-09T09:01:53;101666.44;;;19.95;68.70
45285;BME280;31026;43.780;25.948;2023-05-09T09:04:21;101672.34;;;20.12;68.18
45285;BME280;31026;43.780;25.948;2023-05-09T09:06:50;101660.84;;;20.21;67.88
45285;BME280;31026;43.780;25.948;2023-05-09T09:09:18;101664.13;;;20.13;67.80
45285;BME280;31026;43.780;25.948;2023-05-09T09:11:47;101667.81;;;20.23;67.70
45285;BME280;31026;43.780;25.948;2023-05-09T09:14:18;101663.66;;;20.31;67.24
45285;BME280;31026;43.780;25.948;2023-05-09T09:16:53;101656.94;;;20.36;66.71
45285;BME280;31026;43.780;25.948;2023-05-09T09:19:23;101667.47;;;20.39;66.83
45285;BME280;31026;43.780;25.948;2023-05-09T09:21:55;101650.94;;;19.99;67.80
45285;BME280;31026;43.780;25.948;2023-05-09T09:24:26;101667.31;;;20.07;67.78
45285;BME280;31026;43.780;25.948;2023-05-09T09:26:55;101682.59;;;20.18;67.54
45285;BME280;31026;43.780;25.948;2023-05-09T09:29:23;101681.47;;;20.20;67.64
45285;BME280;31026;43.780;25.948;2023-05-09T09:31:55;101665.50;;;20.08;67.87
45285;BME280;31026;43.780;25.948;2023-05-09T09:34:23;101669.50;;;20.13;67.63
45285;BME280;31026;43.780;25.948;2023-05-09T09:36:52;101681.00;;;20.26;67.17
45285;BME280;31026;43.780;25.948;2023-05-09T09:39:20;101663.78;;;20.29;66.76
45285;BME280;31026;43.780;25.948;2023-05-09T09:41:48;101666.84;;;20.24;67.08
45285;BME280;31026;43.780;25.948;2023-05-09T09:44:17;101660.00;;;19.98;67.78
45285;BME280;31026;43.780;25.948;2023-05-09T09:46:46;101654.28;;;20.14;67.65
45285;BME280;31026;43.780;25.948;2023-05-09T09:49:17;101657.53;;;20.17;67.51
45285;BME280;31026;43.780;25.948;2023-05-09T09:51:48;101653.28;;;20.15;67.52
45285;BME280;31026;43.780;25.948;2023-05-09T09:54:17;101659.78;;;20.23;67.02
45285;BME280;31026;43.780;25.948;2023-05-09T09:56:45;101649.13;;;20.22;67.24
45285;BME280;31026;43.780;25.948;2023-05-09T09:59:14;101655.72;;;20.18;67.18
45285;BME280;31026;43.780;25.948;2023-05-09T10:01:53;101653.91;;;20.18;67.02
45285;BME280;31026;43.780;25.948;2023-05-09T10:04:26;101636.31;;;20.03;67.48
45285;BME280;31026;43.780;25.948;2023-05-09T10:06:55;101624.34;;;19.96;68.53
45285;BME280;31026;43.780;25.948;2023-05-09T10:09:24;101635.06;;;20.41;67.61
45285;BME280;31026;43.780;25.948;2023-05-09T10:11:53;101640.72;;;20.38;67.56
45285;BME280;31026;43.780;25.948;2023-05-09T10:14:23;101644.38;;;20.25;68.09
45285;BME280;31026;43.780;25.948;2023-05-09T10:16:52;101635.59;;;20.12;68.20
45285;BME280;31026;43.780;25.948;2023-05-09T10:19:24;101628.50;;;20.00;68.82
45285;BME280;31026;43.780;25.948;2023-05-09T10:21:55;101628.84;;;19.95;69.04
45285;BME280;31026;43.780;25.948;2023-05-09T10:24:26;101633.88;;;20.00;68.89
45285;BME280;31026;43.780;25.948;2023-05-09T10:26:56;101629.97;;;20.04;68.90
45285;BME280;31026;43.780;25.948;2023-05-09T10:29:28;101624.97;;;20.22;68.08
45285;BME280;31026;43.780;25.948;2023-05-09T10:31:59;101629.47;;;20.33;67.64
45285;BME280;31026;43.780;25.948;2023-05-09T10:34:33;101626.78;;;20.33;67.48
45285;BME280;31026;43.780;25.948;2023-05-09T10:37:04;101628.75;;;20.19;68.06
45285;BME280;31026;43.780;25.948;2023-05-09T10:39:33;101632.03;;;20.00;68.76
45285;BME280;31026;43.780;25.948;2023-05-09T10:42:02;101630.97;;;20.25;68.17
45285;BME280;31026;43.780;25.948;2023-05-09T10:44:31;101632.53;;;20.28;68.01
45285;BME280;31026;43.780;25.948;2023-05-09T10:47:00;101639.97;;;20.13;68.51
45285;BME280;31026;43.780;25.948;2023-05-09T10:49:28;101645.97;;;20.05;68.60
45285;BME280;31026;43.780;25.948;2023-05-09T10:51:59;101634.84;;;19.99;68.59
45285;BME280;31026;43.780;25.948;2023-05-09T10:54:28;101640.94;;;20.01;68.72
45285;BME280;31026;43.780;25.948;2023-05-09T10:56:57;101625.56;;;20.03;68.70
45285;BME280;31026;43.780;25.948;2023-05-09T10:59:32;101634.00;;;19.98;68.59
45285;BME280;31026;43.780;25.948;2023-05-09T11:02:02;101636.31;;;19.92;68.81
45285;BME280;31026;43.780;25.948;2023-05-09T11:04:31;101639.22;;;19.89;69.17
45285;BME280;31026;43.780;25.948;2023-05-09T11:07:02;101643.41;;;20.04;69.13
45285;BME280;31026;43.780;25.948;2023-05-09T11:09:31;101639.84;;;20.26;68.33
45285;BME280;31026;43.780;25.948;2023-05-09T11:12:09;101631.19;;;20.22;68.65
45285;BME280;31026;43.780;25.948;2023-05-09T11:14:39;101621.31;;;20.12;68.69
45285;BME280;31026;43.780;25.948;2023-05-09T11:17:09;101622.75;;;20.04;69.27
45285;BME280;31026;43.780;25.948;2023-05-09T11:19:55;101627.78;;;19.98;69.48
45285;BME280;31026;43.780;25.948;2023-05-09T11:22:27;101623.63;;;19.94;69.60
45285;BME280;31026;43.780;25.948;2023-05-09T11:25:02;101618.25;;;20.05;68.91
45285;BME280;31026;43.780;25.948;2023-05-09T11:27:35;101625.19;;;19.96;69.24
45285;BME280;31026;43.780;25.948;2023-05-09T11:30:05;101628.03;;;20.06;68.24
45285;BME280;31026;43.780;25.948;2023-05-09T11:32:40;101614.47;;;20.08;68.16
45285;BME280;31026;43.780;25.948;2023-05-09T11:35:09;101629.72;;;19.96;69.36
45285;BME280;31026;43.780;25.948;2023-05-09T11:37:41;101625.09;;;20.32;68.89
45285;BME280;31026;43.780;25.948;2023-05-09T11:40:12;101607.97;;;20.44;68.48
45285;BME280;31026;43.780;25.948;2023-05-09T11:42:41;101625.09;;;20.32;68.75
45285;BME280;31026;43.780;25.948;2023-05-09T11:45:10;101623.13;;;20.11;68.88
45285;BME280;31026;43.780;25.948;2023-05-09T11:47:39;101615.78;;;20.13;68.24
45285;BME280;31026;43.780;25.948;2023-05-09T11:50:08;101616.28;;;20.18;68.48
45285;BME280;31026;43.780;25.948;2023-05-09T11:52:36;101601.16;;;20.29;68.36
45285;BME280;31026;43.780;25.948;2023-05-09T11:55:09;101614.81;;;20.37;68.14
45285;BME280;31026;43.780;25.948;2023-05-09T11:57:38;101602.38;;;20.36;68.11
45285;BME280;31026;43.780;25.948;2023-05-09T12:00:07;101612.25;;;20.01;69.34
45285;BME280;31026;43.780;25.948;2023-05-09T12:02:36;101615.69;;;20.26;68.71
45285;BME280;31026;43.780;25.948;2023-05-09T12:05:08;101614.84;;;20.25;68.74
45285;BME280;31026;43.780;25.948;2023-05-09T12:07:37;101602.38;;;20.24;68.53
45285;BME280;31026;43.780;25.948;2023-05-09T12:10:10;101600.41;;;20.15;68.46
45285;BME280;31026;43.780;25.948;2023-05-09T12:12:41;101603.25;;;20.14;68.72
45285;BME280;31026;43.780;25.948;2023-05-09T12:15:10;101595.53;;;20.20;68.54
45285;BME280;31026;43.780;25.948;2023-05-09T12:17:39;101583.56;;;20.24;68.15
45285;BME280;31026;43.780;25.948;2023-05-09T12:20:07;101579.53;;;20.30;68.15
45285;BME280;31026;43.780;25.948;2023-05-09T12:22:36;101595.44;;;20.11;68.77
45285;BME280;31026;43.780;25.948;2023-05-09T12:25:05;101578.84;;;19.94;69.30
45285;BME280;31026;43.780;25.948;2023-05-09T12:27:37;101576.25;;;20.26;68.39
45285;BME280;31026;43.780;25.948;2023-05-09T12:30:06;101586.75;;;20.30;68.17
45285;BME280;31026;43.780;25.948;2023-05-09T12:32:36;101573.81;;;20.23;68.36
45285;BME280;31026;43.780;25.948;2023-05-09T12:35:06;101570.75;;;20.17;68.35
45285;BME280;31026;43.780;25.948;2023-05-09T12:37:35;101565.03;;;20.21;68.17
45285;BME280;31026;43.780;25.948;2023-05-09T12:40:04;101548.31;;;20.18;68.51
45285;BME280;31026;43.780;25.948;2023-05-09T12:42:33;101551.69;;;20.31;68.12
45285;BME280;31026;43.780;25.948;2023-05-09T12:45:06;101551.34;;;20.36;67.61
45285;BME280;31026;43.780;25.948;2023-05-09T12:47:34;101551.84;;;20.07;68.57
45285;BME280;31026;43.780;25.948;2023-05-09T12:50:06;101566.16;;;20.08;68.98
45285;BME280;31026;43.780;25.948;2023-05-09T12:52:35;101544.97;;;20.37;68.10